createdAt,value
2019-02-17T00:00:25.802Z,43
2019-02-17T00:10:29.203Z,42
2019-02-17T00:20:32.621Z,42
2019-02-17T00:30:36.013Z,42
2019-02-17T00:40:39.431Z,42
2019-02-17T00:50:42.846Z,42
2019-02-17T01:00:46.262Z,43
2019-02-17T01:10:49.698Z,43
2019-02-17T01:20:53.132Z,44
2019-02-17T01:41:04.930Z,44
2019-02-17T01:51:08.333Z,44
2019-02-17T02:01:11.776Z,43
2019-02-17T02:11:15.214Z,42
2019-02-17T02:21:18.664Z,43
2019-02-17T02:31:22.104Z,42
2019-02-17T02:41:35.466Z,40
2019-02-17T02:51:38.917Z,41
2019-02-17T03:01:42.374Z,42
2019-02-17T03:11:45.792Z,41
2019-02-17T03:21:49.219Z,42
2019-02-17T03:31:52.688Z,41
2019-02-17T03:41:57.181Z,39
2019-02-17T03:52:00.648Z,40
2019-02-17T04:02:04.101Z,41
2019-02-17T04:12:07.555Z,42
2019-02-17T04:22:10.978Z,42
2019-02-17T04:32:14.449Z,41
2019-02-17T04:42:17.942Z,39
2019-02-17T04:52:21.367Z,41
2019-02-17T05:02:24.814Z,41
2019-02-17T05:12:28.265Z,41
2019-02-17T05:22:31.710Z,41
2019-02-17T05:32:35.154Z,39
2019-02-17T05:42:38.597Z,42
2019-02-17T05:52:41.994Z,42
2019-02-17T06:02:45.435Z,42
2019-02-17T06:12:48.835Z,42
2019-02-17T06:22:52.261Z,43
2019-02-17T06:32:55.782Z,43
2019-02-17T06:42:59.236Z,42
2019-02-17T06:53:02.659Z,41
2019-02-17T07:03:06.102Z,41
2019-02-17T07:13:09.581Z,41
2019-02-17T07:23:15.650Z,41
2019-02-17T07:33:19.099Z,44
2019-02-17T07:43:22.501Z,43
2019-02-17T07:53:25.956Z,44
2019-02-17T08:03:29.370Z,44
2019-02-17T08:13:32.795Z,44
2019-02-17T08:23:36.220Z,47
2019-02-17T08:33:39.674Z,44
2019-02-17T08:43:43.122Z,45
2019-02-17T08:53:46.579Z,44
2019-02-17T09:03:50.017Z,45
2019-02-17T09:13:53.464Z,43
2019-02-17T09:23:56.904Z,43
2019-02-17T09:34:00.334Z,44
2019-02-17T09:44:03.773Z,45
2019-02-17T09:54:07.229Z,43
2019-02-17T10:04:10.634Z,44
2019-02-17T10:14:14.065Z,44
2019-02-17T10:24:17.505Z,43
2019-02-17T10:34:20.951Z,43
2019-02-17T10:44:24.429Z,43
2019-02-17T10:54:27.880Z,43
2019-02-17T11:04:31.304Z,42
2019-02-17T11:14:34.717Z,43
2019-02-17T11:24:38.136Z,42
2019-02-17T11:34:41.564Z,43
2019-02-17T11:44:45.013Z,43
2019-02-17T11:54:48.438Z,42
2019-02-17T12:04:51.868Z,42
2019-02-17T12:14:55.296Z,42
2019-02-17T12:24:58.738Z,41
2019-02-17T12:35:02.175Z,42
2019-02-17T12:45:05.600Z,41
2019-02-17T12:55:09.031Z,41
2019-02-17T13:05:12.445Z,42
2019-02-17T13:15:15.857Z,41
2019-02-17T13:25:19.281Z,40
2019-02-17T13:35:22.708Z,40
2019-02-17T13:45:26.294Z,40
2019-02-17T13:55:29.730Z,40
2019-02-17T14:05:33.165Z,40
2019-02-17T14:15:36.710Z,40
2019-02-17T14:25:40.128Z,40
2019-02-17T14:35:43.555Z,40
2019-02-17T14:45:47.010Z,40
2019-02-17T14:55:50.455Z,40
2019-02-17T15:05:54.041Z,40
2019-02-17T15:15:57.458Z,40
2019-02-17T15:26:00.878Z,42
2019-02-17T15:36:04.331Z,41
2019-02-17T15:46:07.775Z,42
2019-02-17T15:56:11.225Z,42
2019-02-17T16:06:14.693Z,40
2019-02-17T16:16:18.115Z,44
2019-02-17T16:26:21.524Z,45
2019-02-17T16:36:24.975Z,43
2019-02-17T16:46:28.433Z,46
2019-02-17T16:56:31.866Z,46
2019-02-17T17:06:35.308Z,46
2019-02-17T17:16:38.759Z,48
2019-02-17T17:26:42.179Z,51
2019-02-17T17:36:45.671Z,53
2019-02-17T17:46:49.127Z,45
2019-02-17T17:56:52.566Z,45
2019-02-17T18:06:57.405Z,44
2019-02-17T18:17:00.843Z,43
2019-02-17T18:27:04.261Z,43
2019-02-17T18:37:07.684Z,44
2019-02-17T18:47:11.130Z,43
2019-02-17T18:57:14.564Z,44
2019-02-17T19:07:18.010Z,43
2019-02-17T19:17:21.456Z,42
2019-02-17T19:27:24.856Z,43
2019-02-17T19:37:28.295Z,45
2019-02-17T19:47:31.750Z,45
2019-02-17T19:57:35.183Z,44
2019-02-17T20:07:38.604Z,43
2019-02-17T20:17:42.055Z,42
2019-02-17T20:27:45.510Z,42
2019-02-17T20:37:48.929Z,42
2019-02-17T20:47:52.369Z,41
2019-02-17T20:57:55.817Z,41
2019-02-17T21:07:59.230Z,42
2019-02-17T21:18:02.660Z,43
2019-02-17T21:28:06.090Z,42
2019-02-17T21:38:09.511Z,41
2019-02-17T21:48:12.970Z,42
2019-02-17T21:58:16.413Z,41
2019-02-17T22:08:19.879Z,42
2019-02-17T22:18:24.343Z,41
2019-02-17T22:28:27.774Z,42
2019-02-17T22:38:31.295Z,42
2019-02-17T22:48:34.746Z,43
2019-02-17T22:58:38.194Z,42
2019-02-17T23:08:41.638Z,42
2019-02-17T23:18:45.075Z,40
2019-02-17T23:28:48.526Z,41
2019-02-17T23:38:51.907Z,40
2019-02-17T23:48:55.334Z,40
2019-02-17T23:58:58.790Z,41
